Time;durP1;ratioP1;P1;durP2;ratioP2;P2;SDS_P1;SDS_P2;PMS_P1;PMS_P2;Temp;Humidity;BMP_temperature;BMP_pressure;BME280_temperature;BME280_humidity;BME280_pressure;Samples;Min_cycle;Max_cycle;Signal;HPM_P1;HPM_P2
2022/03/16 00:01:18;;;;;;;38.27;32.97;;;;;;;3.69;94.99;102264.47;5258965;28;20033;-75
2022/03/16 00:03:50;;;;;;;39.03;34.65;;;;;;;3.65;95.31;102270.31;5259464;28;20035;-75
2022/03/16 00:06:21;;;;;;;38.87;33.00;;;;;;;3.61;95.19;102269.31;5259122;28;20029;-75
2022/03/16 00:08:53;;;;;;;37.23;31.93;;;;;;;3.57;95.41;102269.13;5258641;28;20037;-76
2022/03/16 00:11:24;;;;;;;35.73;30.67;;;;;;;3.57;95.02;102262.28;5258820;28;20032;-75
2022/03/16 00:13:59;;;;;;;45.53;33.03;;;;;;;3.50;94.96;102264.56;5259021;28;20476;-76
2022/03/16 00:16:30;;;;;;;37.50;31.92;;;;;;;3.52;95.10;102263.78;5259106;28;20060;-75
2022/03/16 00:19:01;;;;;;;38.67;31.53;;;;;;;3.50;94.87;102273.16;5258588;28;20108;-79
2022/03/16 00:21:34;;;;;;;36.77;31.60;;;;;;;3.43;95.22;102272.06;5259219;28;20033;-75
2022/03/16 00:24:05;;;;;;;;;;;;;;;3.41;94.45;102275.38;5258764;28;20070;-76
2022/03/16 00:26:37;;;;;;;39.70;33.33;;;;;;;3.39;94.92;102264.13;5258711;28;19918;-76
2022/03/16 00:29:08;;;;;;;43.50;33.90;;;;;;;3.35;96.03;102265.72;5258633;28;20048;-73
2022/03/16 00:31:40;;;;;;;39.50;34.20;;;;;;;3.37;96.41;102276.09;5258933;28;20082;-78
2022/03/16 00:34:11;;;;;;;40.67;34.33;;;;;;;3.36;96.59;102274.31;5258011;28;20028;-75
2022/03/16 00:36:42;;;;;;;39.33;35.07;;;;;;;3.35;97.02;102280.28;5258942;28;20120;-75
2022/03/16 00:39:14;;;;;;;44.17;36.47;;;;;;;3.35;97.59;102273.44;5259299;28;20029;-74
2022/03/16 00:41:45;;;;;;;43.57;35.63;;;;;;;3.25;97.73;102272.19;5259229;28;20051;-75
2022/03/16 00:44:17;;;;;;;40.93;34.67;;;;;;;3.25;97.68;102263.56;5258617;28;20086;-76
2022/03/16 00:46:48;;;;;;;39.10;33.83;;;;;;;3.21;97.34;102272.84;5259007;28;20033;-74
2022/03/16 00:49:19;;;;;;;40.40;34.20;;;;;;;3.20;97.33;102268.50;5258311;28;20078;-77
2022/03/16 00:51:51;;;;;;;43.57;35.27;;;;;;;3.13;97.50;102263.94;5258255;28;20550;-74
2022/03/16 00:54:22;;;;;;;43.93;35.87;;;;;;;3.10;97.86;102263.81;5260574;28;20477;-75
2022/03/16 00:56:54;;;;;;;39.57;32.97;;;;;;;3.10;97.67;102264.69;5260721;28;20912;-75
2022/03/16 00:59:25;;;;;;;42.03;34.20;;;;;;;3.07;97.37;102261.97;5260616;28;20040;-74
2022/03/16 01:01:57;;;;;;;41.77;35.83;;;;;;;3.08;97.41;102270.59;5260521;28;20029;-74
2022/03/16 01:04:29;;;;;;;41.27;34.20;;;;;;;2.96;97.55;102263.22;5260480;28;20468;-73
2022/03/16 01:07:00;;;;;;;41.10;35.03;;;;;;;3.03;98.10;102256.66;5260986;28;20386;-74
2022/03/16 01:09:31;;;;;;;42.20;33.77;;;;;;;2.99;98.34;102268.50;5260417;28;20040;-73
2022/03/16 01:12:03;;;;;;;43.90;34.23;;;;;;;2.91;97.99;102260.47;5258738;28;20029;-73
2022/03/16 01:14:35;;;;;;;44.90;36.63;;;;;;;2.95;98.59;102255.41;5260236;28;20029;-73
2022/03/16 01:17:07;;;;;;;43.53;36.60;;;;;;;2.99;99.12;102249.59;5259809;28;20076;-73
2022/03/16 01:19:38;;;;;;;42.07;37.33;;;;;;;2.95;99.49;102255.41;5260767;28;20463;-73
2022/03/16 01:22:10;;;;;;;43.97;35.37;;;;;;;3.02;99.96;102249.72;5260579;28;20094;-73
2022/03/16 01:24:41;;;;;;;43.20;36.33;;;;;;;2.99;100.00;102254.75;5259928;28;20095;-73
2022/03/16 01:27:12;;;;;;;46.73;37.00;;;;;;;2.94;100.00;102245.94;5260102;28;20064;-74
2022/03/16 01:29:44;;;;;;;46.87;35.43;;;;;;;2.99;100.00;102245.31;5257059;28;20055;-76
2022/03/16 01:32:15;;;;;;;46.87;34.93;;;;;;;2.96;100.00;102247.75;5257300;28;20065;-75
2022/03/16 01:34:46;;;;;;;42.17;34.10;;;;;;;2.95;100.00;102248.59;5257265;28;20146;-80
2022/03/16 01:37:18;;;;;;;45.70;35.50;;;;;;;2.95;100.00;102247.69;5257468;28;20024;-75
2022/03/16 01:39:49;;;;;;;44.40;36.50;;;;;;;2.96;100.00;102252.03;5257825;28;20036;-75
2022/03/16 01:42:21;;;;;;;41.60;35.13;;;;;;;2.97;100.00;102246.94;5259637;28;20040;-74
2022/03/16 01:44:54;;;;;;;45.77;35.60;;;;;;;2.88;100.00;102233.69;5256894;28;20036;-78
2022/03/16 01:47:26;;;;;;;43.45;33.75;;;;;;;2.89;100.00;102231.16;5256876;28;20028;-75
2022/03/16 01:49:58;;;;;;;43.22;35.50;;;;;;;2.87;100.00;102221.63;5256359;28;20563;-75
2022/03/16 01:52:29;;;;;;;44.90;35.53;;;;;;;2.80;100.00;102212.78;5256740;28;20128;-76
2022/03/16 01:55:05;;;;;;;43.30;34.97;;;;;;;2.83;100.00;102214.59;5256137;28;20491;-74
2022/03/16 01:57:40;;;;;;;45.17;35.78;;;;;;;2.83;100.00;102223.19;5256278;28;20279;-76
2022/03/16 02:00:13;;;;;;;45.05;35.72;;;;;;;2.80;100.00;102225.66;5255967;28;20025;-74
2022/03/16 02:43:54;;;;;;;41.15;33.95;;;;;;;2.63;100.00;102211.19;5228759;28;20087;-74
2022/03/16 02:46:25;;;;;;;45.28;34.30;;;;;;;2.60;100.00;102199.03;5213170;28;20077;-75
2022/03/16 02:48:57;;;;;;;41.90;34.07;;;;;;;2.54;100.00;102202.25;5201094;28;20549;-73
2022/03/16 02:51:28;;;;;;;40.67;34.47;;;;;;;2.50;100.00;102202.91;5194496;28;20045;-76
2022/03/16 02:54:00;;;;;;;45.97;34.87;;;;;;;2.43;100.00;102189.72;5195527;28;20030;-78
2022/03/16 02:56:31;;;;;;;45.17;34.93;;;;;;;2.37;100.00;102186.06;5194977;28;20438;-75
2022/03/16 02:59:03;;;;;;;42.35;35.35;;;;;;;2.33;100.00;102179.00;5211398;28;20092;-74
2022/03/16 03:01:34;;;;;;;48.67;35.43;;;;;;;2.30;100.00;102189.22;5218214;28;20096;-75
2022/03/16 03:04:06;;;;;;;45.17;34.70;;;;;;;2.25;100.00;102179.50;5217147;28;20048;-72
2022/03/16 03:06:37;;;;;;;44.60;35.60;;;;;;;2.29;100.00;102184.84;5218896;28;20029;-78
2022/03/16 03:09:10;;;;;;;43.83;34.70;;;;;;;2.25;100.00;102182.09;5215326;28;20069;-74
2022/03/16 03:11:42;;;;;;;44.38;34.00;;;;;;;2.26;100.00;102182.16;5217749;28;20037;-76
2022/03/16 03:14:13;;;;;;;45.90;36.53;;;;;;;2.31;100.00;102184.94;5218603;28;20026;-76
2022/03/16 03:16:46;;;;;;;46.50;36.57;;;;;;;2.24;100.00;102175.16;5216899;28;20099;-75
2022/03/16 03:19:18;;;;;;;49.00;36.50;;;;;;;2.27;100.00;102188.16;5218732;28;20101;-75
2022/03/16 03:21:50;;;;;;;46.43;35.30;;;;;;;2.27;100.00;102189.06;5215360;28;20029;-75
2022/03/16 03:24:21;;;;;;;47.60;36.57;;;;;;;2.30;100.00;102194.34;5217122;28;20036;-75
2022/03/16 03:26:52;;;;;;;44.90;35.33;;;;;;;2.35;100.00;102200.56;5198331;28;20918;-74
2022/03/16 03:29:24;;;;;;;45.40;37.53;;;;;;;2.31;100.00;102200.38;5198149;28;20035;-75
2022/03/16 03:31:55;;;;;;;48.53;37.27;;;;;;;2.33;100.00;102196.16;5217658;28;20037;-75
2022/03/16 03:34:26;;;;;;;52.23;39.43;;;;;;;2.33;100.00;102204.75;5217162;28;20033;-75
2022/03/16 03:36:58;;;;;;;49.20;39.30;;;;;;;2.30;100.00;102199.50;5218017;28;20041;-76
2022/03/16 03:39:29;;;;;;;46.83;37.13;;;;;;;2.29;100.00;102195.16;5217638;28;20030;-74
2022/03/16 03:42:01;;;;;;;44.60;36.63;;;;;;;2.28;100.00;102195.09;5218307;28;20037;-73
2022/03/16 03:44:32;;;;;;;48.70;37.77;;;;;;;2.27;100.00;102185.59;5224337;28;20049;-73
2022/03/16 03:47:05;;;;;;;46.07;36.37;;;;;;;2.35;100.00;102197.09;5237604;28;20088;-73
2022/03/16 03:49:37;;;;;;;;;;;;;;;2.31;100.00;102190.94;5238114;28;20231;-74
2022/03/16 03:52:10;;;;;;;45.03;35.65;;;;;;;2.35;100.00;102186.81;5237803;28;19947;-75
2022/03/16 03:54:42;;;;;;;47.50;36.40;;;;;;;2.34;100.00;102190.22;5237719;28;20025;-79
2022/03/16 03:57:14;;;;;;;44.90;35.80;;;;;;;2.35;100.00;102191.94;5217209;28;20038;-73
2022/03/16 03:59:45;;;;;;;47.63;35.40;;;;;;;2.35;100.00;102195.44;5217563;28;20044;-74
2022/03/16 04:02:16;;;;;;;50.10;36.97;;;;;;;2.37;100.00;102198.06;5218229;28;20030;-75
2022/03/16 04:04:48;;;;;;;43.93;35.43;;;;;;;2.40;100.00;102190.47;5217201;28;20030;-75
2022/03/16 04:07:19;;;;;;;49.50;38.80;;;;;;;2.39;100.00;102188.72;5218433;28;20445;-75
2022/03/16 04:09:52;;;;;;;50.47;37.87;;;;;;;2.41;100.00;102192.22;5215689;28;20096;-75
2022/03/16 04:12:24;;;;;;;47.53;37.42;;;;;;;2.43;100.00;102177.75;5217962;28;20034;-77
2022/03/16 04:14:55;;;;;;;50.40;38.70;;;;;;;2.42;100.00;102175.09;5217089;28;20120;-74
2022/03/16 04:17:27;;;;;;;49.13;40.20;;;;;;;2.42;100.00;102170.84;5217885;28;20167;-73
2022/03/16 04:19:58;;;;;;;53.73;40.60;;;;;;;2.41;100.00;102176.78;5217131;28;20536;-81
2022/03/16 04:22:29;;;;;;;49.90;37.80;;;;;;;2.51;100.00;102168.66;5236282;28;20176;-73
2022/03/16 04:25:01;;;;;;;53.83;40.93;;;;;;;2.56;100.00;102171.44;5237019;28;20061;-78
2022/03/16 04:27:32;;;;;;;49.87;39.80;;;;;;;2.51;100.00;102167.75;5217967;28;20034;-74
2022/03/16 04:30:04;;;;;;;50.67;40.10;;;;;;;2.49;100.00;102174.53;5216536;28;20132;-75
2022/03/16 04:32:36;;;;;;;50.47;39.72;;;;;;;2.52;100.00;102174.69;5216451;28;20112;-73
2022/03/16 04:35:07;;;;;;;51.93;40.03;;;;;;;2.48;100.00;102170.19;5216904;28;20473;-78
2022/03/16 04:37:41;;;;;;;51.97;40.93;;;;;;;2.46;100.00;102175.28;5217956;28;20060;-80
2022/03/16 04:40:13;;;;;;;55.90;42.78;;;;;;;2.51;100.00;102176.38;5216818;28;20026;-76
2022/03/16 04:42:44;;;;;;;53.88;42.13;;;;;;;2.46;100.00;102180.44;5217627;28;20048;-74
2022/03/16 04:45:16;;;;;;;55.97;40.37;;;;;;;2.41;100.00;102176.78;5216404;28;20145;-76
2022/03/16 04:47:47;;;;;;;52.00;42.27;;;;;;;2.43;100.00;102176.84;5218051;28;20109;-76
2022/03/16 04:50:19;;;;;;;54.03;42.00;;;;;;;2.41;100.00;102175.91;5216656;28;20137;-79
2022/03/16 04:52:50;;;;;;;52.20;41.43;;;;;;;2.38;100.00;102171.50;5217412;28;20034;-73
2022/03/16 04:55:22;;;;;;;48.10;40.60;;;;;;;2.36;100.00;102178.28;5216866;28;20309;-74
2022/03/16 04:57:53;;;;;;;53.70;42.30;;;;;;;2.37;100.00;102182.63;5235248;28;20109;-73
2022/03/16 05:00:24;;;;;;;55.63;42.40;;;;;;;2.35;100.00;102171.38;5237290;28;20520;-74
2022/03/16 05:02:56;;;;;;;50.17;40.93;;;;;;;2.33;100.00;102184.16;5235238;28;20395;-75
2022/03/16 05:05:28;;;;;;;56.37;43.33;;;;;;;2.41;100.00;102178.47;5236964;28;20029;-72
2022/03/16 05:08:00;;;;;;;54.75;42.80;;;;;;;2.46;100.00;102184.69;5216264;28;20866;-78
2022/03/16 05:10:31;;;;;;;55.80;43.27;;;;;;;2.47;100.00;102189.91;5216102;28;20038;-73
2022/03/16 05:13:03;;;;;;;59.80;45.37;;;;;;;2.53;100.00;102186.75;5234428;28;20065;-74
2022/03/16 05:15:34;;;;;;;52.50;42.40;;;;;;;2.54;100.00;102181.66;5236638;28;20037;-72
2022/03/16 05:18:06;;;;;;;50.97;41.00;;;;;;;2.59;100.00;102178.38;5217789;28;20037;-72
2022/03/16 05:20:37;;;;;;;54.23;42.63;;;;;;;2.51;100.00;102170.34;5215264;28;20061;-75
2022/03/16 05:23:08;;;;;;;50.70;41.33;;;;;;;2.46;100.00;102167.56;5234501;28;20116;-73
2022/03/16 05:25:41;;;;;;;54.50;42.17;;;;;;;2.40;100.00;102167.31;5236723;28;20036;-75
2022/03/16 05:28:13;;;;;;;51.13;41.33;;;;;;;2.41;100.00;102171.63;5215518;28;20029;-76
2022/03/16 05:30:44;;;;;;;51.97;41.00;;;;;;;2.40;100.00;102162.19;5216153;28;20040;-74
2022/03/16 05:33:16;;;;;;;54.70;40.67;;;;;;;2.41;100.00;102161.34;5199590;28;20032;-74
2022/03/16 11:42:57;;;;;;;;;;;;;;;;;;;;;
2022/03/16 11:46:46;;;;;;;12.23;10.95;;;;;;;18.07;43.22;102104.63;5121656;29;20051;-81
2022/03/16 11:50:28;;;;;;;12.93;10.88;;;;;;;18.02;43.45;102094.16;5097218;29;20515;-81
2022/03/16 12:04:44;;;;;;;;;;;;;;;;;;;;;
2022/03/16 12:29:50;;;;;;;;;;;;;;;;;;;;;
2022/03/16 12:33:19;;;;;;;;;;;;;;;;;;;;;
2022/03/16 12:58:06;;;;;;;15.18;10.80;;;;;;;16.92;47.19;102024.38;5040594;29;20045;-74
2022/03/16 13:01:20;;;;;;;12.88;10.68;;;;;;;16.20;47.99;102034.44;4996612;29;20078;-75
2022/03/16 13:21:30;;;;;;;19.73;11.90;;;;;;;16.15;49.40;102007.34;5016991;29;20050;-81
2022/03/16 13:24:10;;;;;;;12.85;10.82;;;;;;;15.85;50.17;102015.66;5002248;29;20050;-75
2022/03/16 13:26:42;;;;;;;13.65;11.70;;;;;;;15.97;49.55;102008.47;4986108;29;20130;-80
2022/03/16 13:29:15;;;;;;;13.30;10.13;;;;;;;16.15;49.53;102007.34;5016675;29;20972;-80
2022/03/16 13:31:46;;;;;;;12.73;10.60;;;;;;;15.98;49.32;102004.97;5016396;29;20046;-79
2022/03/16 13:34:18;;;;;;;13.40;10.33;;;;;;;16.12;49.30;101996.88;5075585;29;20045;-80
2022/03/16 13:36:52;;;;;;;12.48;10.20;;;;;;;16.32;49.13;101986.84;5074048;29;20028;-82
2022/03/16 13:39:31;;;;;;;12.88;10.57;;;;;;;16.20;49.41;101989.72;5073812;29;20048;-80
2022/03/16 13:42:13;;;;;;;14.55;11.35;;;;;;;16.06;49.54;101989.06;5073381;29;20580;-83
2022/03/16 13:44:46;;;;;;;14.90;10.73;;;;;;;15.88;50.31;101979.72;5073922;29;20498;-79
2022/03/16 13:47:20;;;;;;;13.27;11.88;;;;;;;15.83;49.71;101978.00;5073058;29;20053;-75
2022/03/16 13:49:55;;;;;;;15.23;10.93;;;;;;;16.03;50.35;101971.56;5073088;29;20041;-75
2022/03/16 13:52:34;;;;;;;12.88;10.32;;;;;;;15.81;50.26;101971.91;5056944;29;20613;-76
2022/03/16 13:55:09;;;;;;;15.40;10.55;;;;;;;15.75;50.74;101958.84;5092423;29;20040;-75
2022/03/16 13:57:42;;;;;;;12.32;9.75;;;;;;;15.66;50.95;101964.22;5116418;28;20560;-78
2022/03/16 14:00:16;;;;;;;15.60;10.85;;;;;;;15.44;50.85;101955.78;5195130;28;20113;-75
2022/03/16 14:02:48;;;;;;;12.02;9.02;;;;;;;15.42;51.20;101947.94;5178003;28;20077;-76
2022/03/16 14:05:19;;;;;;;14.40;9.48;;;;;;;15.40;51.99;101944.44;5195225;28;20113;-76
2022/03/16 14:07:53;;;;;;;10.30;9.30;;;;;;;15.46;51.09;101933.00;5194862;28;20088;-80
2022/03/16 14:10:25;;;;;;;11.02;9.25;;;;;;;15.37;51.53;101933.97;5195484;28;20030;-82
2022/03/16 14:13:05;;;;;;;17.55;9.60;;;;;;;15.23;52.05;101926.31;5195444;28;20390;-76
2022/03/16 14:15:38;;;;;;;13.45;11.20;;;;;;;15.35;52.44;101916.53;5195507;28;20033;-77
2022/03/16 14:18:12;;;;;;;13.88;9.43;;;;;;;15.30;51.81;101908.72;5194744;28;20081;-77
2022/03/16 14:20:48;;;;;;;14.00;9.65;;;;;;;15.13;52.50;101903.69;5195452;28;20069;-76
2022/03/16 14:23:20;;;;;;;12.52;9.77;;;;;;;15.24;52.24;101899.13;5194947;28;20034;-80
2022/03/16 14:25:55;;;;;;;11.43;9.20;;;;;;;14.99;52.54;101889.88;5194378;28;20430;-79
2022/03/16 14:28:27;;;;;;;11.75;9.38;;;;;;;14.94;52.48;101889.94;5198132;28;20084;-75
2022/03/16 14:30:58;;;;;;;11.40;9.33;;;;;;;14.93;53.05;101878.56;5199571;28;20034;-76
2022/03/16 14:33:30;;;;;;;14.50;10.93;;;;;;;14.81;53.13;101881.38;5198436;28;20022;-80
2022/03/16 14:36:02;;;;;;;20.45;9.98;;;;;;;14.92;53.14;101889.09;5198700;28;20026;-76
2022/03/16 14:38:34;;;;;;;14.17;9.63;;;;;;;14.98;53.12;101882.91;5198088;28;20026;-74
2022/03/16 14:41:07;;;;;;;14.15;9.38;;;;;;;14.81;52.62;101881.38;5196767;28;20030;-75
2022/03/16 14:43:38;;;;;;;14.05;9.63;;;;;;;14.78;53.18;101878.78;5191440;28;20537;-74
2022/03/16 14:46:11;;;;;;;11.47;10.27;;;;;;;14.65;53.92;101878.06;5203332;28;20053;-75
2022/03/16 14:48:43;;;;;;;;;;;;;;;14.89;53.09;101863.75;5219121;28;20033;-73
2022/03/16 14:51:14;;;;;;;12.82;10.95;;;;;;;14.62;54.35;101862.38;5218504;28;19918;-75
2022/03/16 14:53:45;;;;;;;15.97;10.20;;;;;;;14.54;53.66;101869.44;5221248;28;20068;-77
2022/03/16 14:56:17;;;;;;;17.57;10.47;;;;;;;14.37;54.33;101859.97;5223734;28;20018;-78
2022/03/16 18:39:51;;;;;;;10.77;8.50;;;;;;;11.21;63.20;101756.16;5215941;28;20081;-80
2022/03/16 18:42:29;;;;;;;12.70;9.20;;;;;;;11.16;63.46;101748.34;5233549;28;20033;-82
2022/03/16 18:45:00;;;;;;;12.43;9.25;;;;;;;11.11;63.43;101742.25;5235551;28;20034;-74
2022/03/16 18:47:35;;;;;;;11.47;8.50;;;;;;;11.13;63.39;101749.19;5218243;28;20086;-74
2022/03/16 18:50:11;;;;;;;11.82;8.68;;;;;;;11.14;63.19;101752.69;5235154;28;20491;-76
2022/03/16 19:08:06;;;;;;;12.70;9.38;;;;;;;11.03;64.05;101743.94;5099877;29;20036;-74
2022/03/16 19:18:32;;;;;;;12.40;10.45;;;;;;;10.98;64.51;101735.25;4946438;30;20060;-85
2022/03/16 19:55:40;;;;;;;;;;;;;;;;;;;;;
2022/03/16 20:09:59;;;;;;;18.73;12.85;;;;;;;10.74;67.30;101768.28;6475456;23;20341;-75
2022/03/16 20:13:25;;;;;;;12.93;11.65;;;;;;;10.72;67.06;101762.16;6450798;23;20832;-79
2022/03/16 20:27:49;;;;;;;;;;;;;;;;;;;;;
2022/03/16 20:34:48;;;;;;;;;;;;;;;;;;;;;
2022/03/16 20:38:03;;;;;;;;;;;;;;;;;;;;;
2022/03/16 20:47:49;;;;;;;19.25;11.88;;;;;;;10.54;68.74;101753.44;6213055;24;20013;-77
2022/03/16 20:50:31;;;;;;;15.85;12.93;;;;;;;10.54;69.04;101753.44;6204568;24;20042;-74
2022/03/16 20:56:41;;;;;;;17.05;13.65;;;;;;;10.43;68.98;101739.50;6174185;24;20344;-75
2022/03/16 21:03:28;;;;;;;16.00;13.30;;;;;;;10.43;69.16;101756.88;6093871;24;20361;-85
2022/03/16 21:06:34;;;;;;;17.85;13.63;;;;;;;10.40;69.11;101757.75;6071249;24;20525;-84
2022/03/16 21:09:41;;;;;;;;;;;;;;;;;;;;;
2022/03/16 21:12:13;;;;;;;16.85;13.10;;;;;;;10.44;69.58;101762.09;6187722;24;20092;-78
2022/03/16 21:14:45;;;;;;;14.93;12.93;;;;;;;10.45;69.38;101758.63;6215682;24;20031;-79
2022/03/16 21:17:16;;;;;;;16.80;14.73;;;;;;;10.44;69.62;101762.09;6222823;24;20019;-74
2022/03/16 21:19:48;;;;;;;16.53;13.47;;;;;;;10.44;69.72;101769.91;6222711;24;20016;-74
2022/03/16 21:22:19;;;;;;;18.00;15.47;;;;;;;10.44;69.58;101767.31;6222680;24;20024;-74
2022/03/16 21:24:53;;;;;;;16.60;14.83;;;;;;;10.44;69.66;101766.44;6492246;22;20448;-74
2022/03/16 21:27:27;;;;;;;18.80;15.50;;;;;;;10.48;69.71;101768.19;6562827;22;20007;-72
2022/03/16 21:29:59;;;;;;;17.13;15.32;;;;;;;10.44;69.85;101759.50;6562922;22;20010;-73
2022/03/16 21:32:30;;;;;;;16.63;14.80;;;;;;;10.45;69.71;101770.78;6563004;22;20011;-74
2022/03/16 21:35:17;;;;;;;20.47;14.90;;;;;;;10.46;69.74;101776.00;6533284;22;20019;-76
2022/03/16 21:38:27;;;;;;;16.98;15.18;;;;;;;10.45;69.78;101776.00;6528863;22;20061;-73
2022/03/16 21:50:23;;;;;;;17.23;14.98;;;;;;;10.31;70.03;101768.97;6429785;23;20017;-74
2022/03/16 21:53:18;;;;;;;18.40;13.90;;;;;;;10.37;69.99;101776.00;6430526;23;20474;-74
2022/03/16 21:56:08;;;;;;;21.42;14.70;;;;;;;10.27;70.24;101767.22;6430809;23;20072;-77
2022/03/16 22:05:46;;;;;;;16.95;14.40;;;;;;;10.32;70.55;101786.38;6276267;23;20022;-77
2022/03/16 22:08:53;;;;;;;;;;;;;;;;;;;;;
2022/03/16 22:11:46;;;;;;;17.63;14.63;;;;;;;10.25;70.63;101771.53;6261553;23;20098;-73
2022/03/16 22:15:02;;;;;;;17.97;15.40;;;;;;;10.28;70.57;101774.16;6289307;23;20365;-74
2022/03/16 22:18:00;;;;;;;19.95;15.43;;;;;;;10.23;70.59;101768.94;6305949;23;20035;-75
2022/03/16 22:21:29;;;;;;;18.38;15.20;;;;;;;10.22;70.61;101768.91;6263193;23;20113;-78
2022/03/16 22:24:19;;;;;;;18.25;15.90;;;;;;;10.31;70.81;101781.13;6250079;23;20772;-77
2022/03/16 22:27:23;;;;;;;18.33;14.73;;;;;;;10.26;71.06;101772.44;6284794;23;20321;-75
2022/03/16 22:30:00;;;;;;;;;;;;;;;10.33;70.45;101782.91;6315597;23;20010;-73
2022/03/16 22:33:08;;;;;;;20.42;14.88;;;;;;;10.20;71.02;101761.09;6339089;23;19917;-76
2022/03/16 22:36:05;;;;;;;18.55;15.70;;;;;;;10.27;71.05;101772.44;6223827;23;20134;-73
2022/03/16 22:38:51;;;;;;;17.52;14.75;;;;;;;10.26;71.02;101773.28;6250234;23;20024;-74
2022/03/16 22:41:27;;;;;;;18.20;16.25;;;;;;;10.21;71.09;101754.16;6242533;23;20454;-75
2022/03/16 22:44:16;;;;;;;19.95;15.18;;;;;;;10.21;71.18;101755.03;6309104;23;20014;-75
2022/03/16 22:46:47;;;;;;;17.48;15.63;;;;;;;10.23;71.58;101768.94;6308865;23;20022;-76
2022/03/16 22:49:18;;;;;;;17.93;16.00;;;;;;;10.26;71.35;101762.00;6309897;23;20011;-73
2022/03/16 22:51:50;;;;;;;18.43;16.60;;;;;;;10.26;71.20;101756.81;6309751;23;20057;-73
2022/03/16 22:54:21;;;;;;;20.37;17.13;;;;;;;10.25;71.45;101752.44;6309137;23;20014;-75
2022/03/16 22:56:53;;;;;;;18.97;16.97;;;;;;;10.25;71.50;101755.91;6309162;23;20412;-71
2022/03/16 22:59:26;;;;;;;18.33;15.40;;;;;;;10.27;71.61;101755.91;6332612;23;20037;-75
2022/03/16 23:01:57;;;;;;;20.60;16.02;;;;;;;10.27;71.71;101758.53;6399917;23;20019;-76
2022/03/16 23:04:29;;;;;;;17.47;15.53;;;;;;;10.22;71.87;101759.41;6400584;23;20021;-75
2022/03/16 23:07:00;;;;;;;19.67;16.73;;;;;;;10.25;71.72;101770.69;6400062;23;20048;-75
2022/03/16 23:09:31;;;;;;;20.10;16.03;;;;;;;10.23;71.79;101763.72;6400516;23;20470;-75
2022/03/16 23:12:03;;;;;;;17.33;15.50;;;;;;;10.24;71.99;101764.59;6428400;23;20551;-74
2022/03/16 23:14:35;;;;;;;17.87;15.83;;;;;;;10.21;72.12;101757.63;6497457;23;20078;-75
2022/03/16 23:17:07;;;;;;;21.05;17.08;;;;;;;10.21;72.08;101770.66;6497321;23;20019;-76
2022/03/16 23:19:38;;;;;;;19.80;17.70;;;;;;;10.20;72.15;101758.50;6497650;23;20004;-77
2022/03/16 23:22:09;;;;;;;25.20;16.40;;;;;;;10.23;72.25;101765.47;6496445;23;20010;-73
2022/03/16 23:24:41;;;;;;;20.80;16.27;;;;;;;10.26;72.00;101767.22;6497248;23;20501;-75
2022/03/16 23:27:12;;;;;;;17.90;16.00;;;;;;;10.25;72.11;101775.91;6498026;23;20368;-74
2022/03/16 23:29:43;;;;;;;19.70;15.73;;;;;;;10.25;72.22;101771.53;6497713;23;20011;-77
2022/03/16 23:32:16;;;;;;;21.80;17.23;;;;;;;10.25;72.32;101773.28;6497521;23;20011;-73
2022/03/16 23:34:49;;;;;;;19.10;17.10;;;;;;;10.26;72.51;101762.00;6502851;22;20015;-74
2022/03/16 23:37:20;;;;;;;20.52;17.55;;;;;;;10.25;72.55;101765.47;6529242;22;20367;-78
2022/03/16 23:39:52;;;;;;;18.20;16.30;;;;;;;10.21;72.69;101759.38;6529048;22;20049;-74
2022/03/16 23:42:28;;;;;;;19.83;17.07;;;;;;;10.22;72.87;101763.72;6529347;22;20375;-74
2022/03/16 23:44:59;;;;;;;18.75;16.75;;;;;;;10.21;72.87;101764.59;6528799;22;20069;-76
2022/03/16 23:47:32;;;;;;;19.33;16.63;;;;;;;10.20;73.03;101761.09;6528961;22;20091;-73
2022/03/16 23:50:04;;;;;;;;;;;;;;;10.23;72.83;101774.13;6530134;22;20004;-74
2022/03/16 23:52:36;;;;;;;17.90;16.05;;;;;;;10.21;72.83;101762.84;6529288;22;19930;-71
2022/03/16 23:55:08;;;;;;;19.70;16.73;;;;;;;10.22;72.86;101769.81;6529723;22;20004;-75
2022/03/16 23:57:41;;;;;;;22.48;17.58;;;;;;;10.22;73.02;101753.28;6529152;22;20014;-75
